sensor_id;sensor_type;location;lat;lon;timestamp;P1;durP1;ratioP1;P2;durP2;ratioP2
12088;SDS011;6107;49.078;8.578;2022-11-27T00:02:04;50.97;;;22.30;;
12088;SDS011;6107;49.078;8.578;2022-11-27T00:04:29;57.70;;;23.77;;
12088;SDS011;6107;49.078;8.578;2022-11-27T00:06:55;47.77;;;23.03;;
12088;SDS011;6107;49.078;8.578;2022-11-27T00:09:20;48.30;;;22.53;;
12088;SDS011;6107;49.078;8.578;2022-11-27T00:11:46;49.10;;;22.60;;
12088;SDS011;6107;49.078;8.578;2022-11-27T00:14:12;46.53;;;22.80;;
12088;SDS011;6107;49.078;8.578;2022-11-27T00:16:39;44.30;;;21.10;;
12088;SDS011;6107;49.078;8.578;2022-11-27T00:19:05;45.40;;;21.70;;
12088;SDS011;6107;49.078;8.578;2022-11-27T00:21:31;48.97;;;22.73;;
12088;SDS011;6107;49.078;8.578;2022-11-27T00:24:00;42.20;;;21.50;;
12088;SDS011;6107;49.078;8.578;2022-11-27T00:26:27;44.37;;;20.80;;
12088;SDS011;6107;49.078;8.578;2022-11-27T00:28:53;45.13;;;21.73;;
12088;SDS011;6107;49.078;8.578;2022-11-27T00:31:23;42.67;;;19.90;;
12088;SDS011;6107;49.078;8.578;2022-11-27T00:33:59;34.97;;;19.40;;
12088;SDS011;6107;49.078;8.578;2022-11-27T00:36:28;43.03;;;22.03;;
12088;SDS011;6107;49.078;8.578;2022-11-27T00:38:55;36.67;;;19.07;;
12088;SDS011;6107;49.078;8.578;2022-11-27T00:41:22;37.53;;;19.37;;
12088;SDS011;6107;49.078;8.578;2022-11-27T00:43:49;34.23;;;18.40;;
12088;SDS011;6107;49.078;8.578;2022-11-27T00:46:16;35.37;;;18.73;;
12088;SDS011;6107;49.078;8.578;2022-11-27T00:48:43;39.13;;;18.77;;
12088;SDS011;6107;49.078;8.578;2022-11-27T00:51:10;33.67;;;17.30;;
12088;SDS011;6107;49.078;8.578;2022-11-27T00:53:37;31.47;;;17.57;;
12088;SDS011;6107;49.078;8.578;2022-11-27T00:56:03;30.63;;;16.73;;
12088;SDS011;6107;49.078;8.578;2022-11-27T00:58:29;30.70;;;17.30;;
12088;SDS011;6107;49.078;8.578;2022-11-27T01:00:58;28.33;;;14.97;;
12088;SDS011;6107;49.078;8.578;2022-11-27T01:03:29;27.77;;;15.93;;
12088;SDS011;6107;49.078;8.578;2022-11-27T01:05:55;27.83;;;15.70;;
12088;SDS011;6107;49.078;8.578;2022-11-27T01:08:21;25.97;;;14.70;;
12088;SDS011;6107;49.078;8.578;2022-11-27T01:10:51;26.83;;;14.73;;
12088;SDS011;6107;49.078;8.578;2022-11-27T01:13:21;26.90;;;14.90;;
12088;SDS011;6107;49.078;8.578;2022-11-27T01:15:57;27.93;;;15.77;;
12088;SDS011;6107;49.078;8.578;2022-11-27T01:18:30;23.23;;;13.67;;
12088;SDS011;6107;49.078;8.578;2022-11-27T01:20:56;21.60;;;12.90;;
12088;SDS011;6107;49.078;8.578;2022-11-27T01:23:22;24.93;;;13.60;;
12088;SDS011;6107;49.078;8.578;2022-11-27T01:25:48;21.07;;;12.47;;
12088;SDS011;6107;49.078;8.578;2022-11-27T01:28:15;20.17;;;11.87;;
12088;SDS011;6107;49.078;8.578;2022-11-27T01:30:41;21.53;;;12.20;;
12088;SDS011;6107;49.078;8.578;2022-11-27T01:33:06;19.63;;;11.77;;
12088;SDS011;6107;49.078;8.578;2022-11-27T01:35:32;18.90;;;11.70;;
12088;SDS011;6107;49.078;8.578;2022-11-27T01:37:57;20.27;;;11.13;;
12088;SDS011;6107;49.078;8.578;2022-11-27T01:40:23;19.27;;;10.90;;
12088;SDS011;6107;49.078;8.578;2022-11-27T01:42:50;19.27;;;11.27;;
12088;SDS011;6107;49.078;8.578;2022-11-27T01:45:17;18.87;;;10.70;;
12088;SDS011;6107;49.078;8.578;2022-11-27T01:47:48;19.47;;;10.47;;
12088;SDS011;6107;49.078;8.578;2022-11-27T01:50:19;16.10;;;9.70;;
12088;SDS011;6107;49.078;8.578;2022-11-27T01:52:50;17.77;;;9.90;;
12088;SDS011;6107;49.078;8.578;2022-11-27T01:55:30;20.47;;;10.77;;
12088;SDS011;6107;49.078;8.578;2022-11-27T01:58:00;15.93;;;10.10;;
12088;SDS011;6107;49.078;8.578;2022-11-27T02:00:31;21.40;;;10.90;;
12088;SDS011;6107;49.078;8.578;2022-11-27T02:02:57;18.53;;;10.07;;
12088;SDS011;6107;49.078;8.578;2022-11-27T02:05:24;16.53;;;9.80;;
12088;SDS011;6107;49.078;8.578;2022-11-27T02:07:52;18.03;;;9.63;;
12088;SDS011;6107;49.078;8.578;2022-11-27T02:10:18;16.53;;;10.07;;
12088;SDS011;6107;49.078;8.578;2022-11-27T02:15:33;15.00;;;10.03;;
12088;SDS011;6107;49.078;8.578;2022-11-27T02:20:49;15.07;;;9.23;;
12088;SDS011;6107;49.078;8.578;2022-11-27T02:29:26;12.33;;;8.73;;
12088;SDS011;6107;49.078;8.578;2022-11-27T02:32:01;15.93;;;8.83;;
12088;SDS011;6107;49.078;8.578;2022-11-27T02:35:10;14.63;;;9.10;;
12088;SDS011;6107;49.078;8.578;2022-11-27T02:37:43;13.93;;;8.30;;
12088;SDS011;6107;49.078;8.578;2022-11-27T02:40:19;18.67;;;10.27;;
12088;SDS011;6107;49.078;8.578;2022-11-27T02:42:56;36.20;;;10.53;;
12088;SDS011;6107;49.078;8.578;2022-11-27T02:45:34;34.03;;;10.37;;
12088;SDS011;6107;49.078;8.578;2022-11-27T02:48:06;22.30;;;9.37;;
12088;SDS011;6107;49.078;8.578;2022-11-27T02:50:34;32.40;;;9.93;;
12088;SDS011;6107;49.078;8.578;2022-11-27T02:53:03;17.17;;;8.40;;
12088;SDS011;6107;49.078;8.578;2022-11-27T02:55:32;15.53;;;8.10;;
12088;SDS011;6107;49.078;8.578;2022-11-27T02:58:01;18.20;;;8.90;;
12088;SDS011;6107;49.078;8.578;2022-11-27T03:00:32;15.03;;;8.20;;
12088;SDS011;6107;49.078;8.578;2022-11-27T03:03:00;19.50;;;7.87;;
12088;SDS011;6107;49.078;8.578;2022-11-27T03:05:31;23.03;;;7.67;;
12088;SDS011;6107;49.078;8.578;2022-11-27T03:08:00;18.67;;;7.57;;
12088;SDS011;6107;49.078;8.578;2022-11-27T03:10:34;10.87;;;6.60;;
12088;SDS011;6107;49.078;8.578;2022-11-27T03:13:06;15.73;;;7.40;;
12088;SDS011;6107;49.078;8.578;2022-11-27T03:15:54;13.80;;;7.10;;
12088;SDS011;6107;49.078;8.578;2022-11-27T03:18:31;22.23;;;6.70;;
12088;SDS011;6107;49.078;8.578;2022-11-27T03:21:27;25.67;;;7.53;;
12088;SDS011;6107;49.078;8.578;2022-11-27T03:23:57;19.00;;;6.90;;
12088;SDS011;6107;49.078;8.578;2022-11-27T03:26:24;17.67;;;7.57;;
12088;SDS011;6107;49.078;8.578;2022-11-27T03:28:50;17.00;;;6.97;;
12088;SDS011;6107;49.078;8.578;2022-11-27T03:31:17;23.80;;;7.27;;
12088;SDS011;6107;49.078;8.578;2022-11-27T03:33:44;22.87;;;7.50;;
12088;SDS011;6107;49.078;8.578;2022-11-27T03:36:11;15.47;;;7.77;;
12088;SDS011;6107;49.078;8.578;2022-11-27T03:38:39;19.43;;;7.47;;
12088;SDS011;6107;49.078;8.578;2022-11-27T03:41:10;15.43;;;8.40;;
12088;SDS011;6107;49.078;8.578;2022-11-27T03:43:51;17.27;;;8.87;;
12088;SDS011;6107;49.078;8.578;2022-11-27T03:47:02;14.70;;;7.40;;
12088;SDS011;6107;49.078;8.578;2022-11-27T03:52:19;17.40;;;7.83;;
12088;SDS011;6107;49.078;8.578;2022-11-27T03:57:29;15.97;;;8.70;;
12088;SDS011;6107;49.078;8.578;2022-11-27T04:00:26;18.63;;;8.47;;
12088;SDS011;6107;49.078;8.578;2022-11-27T04:02:58;26.63;;;8.00;;
12088;SDS011;6107;49.078;8.578;2022-11-27T04:05:24;20.63;;;8.57;;
12088;SDS011;6107;49.078;8.578;2022-11-27T04:07:49;17.73;;;7.67;;
12088;SDS011;6107;49.078;8.578;2022-11-27T04:10:15;12.77;;;7.40;;
12088;SDS011;6107;49.078;8.578;2022-11-27T04:12:40;16.40;;;7.57;;
12088;SDS011;6107;49.078;8.578;2022-11-27T04:15:06;17.10;;;7.30;;
12088;SDS011;6107;49.078;8.578;2022-11-27T04:17:32;16.67;;;6.87;;
12088;SDS011;6107;49.078;8.578;2022-11-27T04:19:58;13.37;;;7.50;;
12088;SDS011;6107;49.078;8.578;2022-11-27T04:22:23;12.10;;;7.13;;
12088;SDS011;6107;49.078;8.578;2022-11-27T04:24:49;13.03;;;6.97;;
12088;SDS011;6107;49.078;8.578;2022-11-27T04:27:14;13.67;;;6.80;;
12088;SDS011;6107;49.078;8.578;2022-11-27T04:29:40;17.83;;;7.30;;
12088;SDS011;6107;49.078;8.578;2022-11-27T04:32:06;12.17;;;6.47;;
12088;SDS011;6107;49.078;8.578;2022-11-27T04:34:31;13.23;;;7.50;;
12088;SDS011;6107;49.078;8.578;2022-11-27T04:36:57;15.13;;;7.13;;
12088;SDS011;6107;49.078;8.578;2022-11-27T04:39:22;14.97;;;6.53;;
12088;SDS011;6107;49.078;8.578;2022-11-27T04:41:48;12.20;;;6.40;;
12088;SDS011;6107;49.078;8.578;2022-11-27T04:44:14;11.67;;;6.20;;
12088;SDS011;6107;49.078;8.578;2022-11-27T04:46:39;11.97;;;7.27;;
12088;SDS011;6107;49.078;8.578;2022-11-27T04:49:05;11.60;;;6.87;;
12088;SDS011;6107;49.078;8.578;2022-11-27T04:51:30;10.23;;;5.93;;
12088;SDS011;6107;49.078;8.578;2022-11-27T04:53:56;11.67;;;6.70;;
12088;SDS011;6107;49.078;8.578;2022-11-27T04:56:22;10.83;;;6.83;;
12088;SDS011;6107;49.078;8.578;2022-11-27T04:58:47;11.17;;;6.57;;
12088;SDS011;6107;49.078;8.578;2022-11-27T05:01:13;9.87;;;6.03;;
12088;SDS011;6107;49.078;8.578;2022-11-27T05:03:39;10.63;;;6.10;;
12088;SDS011;6107;49.078;8.578;2022-11-27T05:06:05;9.13;;;5.97;;
12088;SDS011;6107;49.078;8.578;2022-11-27T05:08:31;10.67;;;6.00;;
12088;SDS011;6107;49.078;8.578;2022-11-27T05:11:01;9.67;;;5.70;;
12088;SDS011;6107;49.078;8.578;2022-11-27T05:13:29;9.87;;;6.10;;
12088;SDS011;6107;49.078;8.578;2022-11-27T05:15:55;7.60;;;5.50;;
12088;SDS011;6107;49.078;8.578;2022-11-27T05:18:21;13.67;;;6.13;;
12088;SDS011;6107;49.078;8.578;2022-11-27T05:20:46;8.23;;;5.40;;
12088;SDS011;6107;49.078;8.578;2022-11-27T05:23:12;16.00;;;6.07;;
12088;SDS011;6107;49.078;8.578;2022-11-27T05:25:38;9.63;;;6.00;;
12088;SDS011;6107;49.078;8.578;2022-11-27T05:28:03;8.53;;;5.13;;
12088;SDS011;6107;49.078;8.578;2022-11-27T05:30:29;10.43;;;6.00;;
12088;SDS011;6107;49.078;8.578;2022-11-27T05:32:54;9.93;;;6.37;;
12088;SDS011;6107;49.078;8.578;2022-11-27T05:35:20;9.83;;;5.83;;
12088;SDS011;6107;49.078;8.578;2022-11-27T05:37:45;11.20;;;6.13;;
12088;SDS011;6107;49.078;8.578;2022-11-27T05:40:11;11.13;;;5.83;;
12088;SDS011;6107;49.078;8.578;2022-11-27T05:42:37;8.77;;;5.90;;
12088;SDS011;6107;49.078;8.578;2022-11-27T05:45:02;14.20;;;6.37;;
12088;SDS011;6107;49.078;8.578;2022-11-27T05:47:28;11.43;;;5.50;;
12088;SDS011;6107;49.078;8.578;2022-11-27T05:49:54;10.27;;;6.30;;
12088;SDS011;6107;49.078;8.578;2022-11-27T05:52:19;12.53;;;6.67;;
12088;SDS011;6107;49.078;8.578;2022-11-27T05:54:45;10.80;;;6.43;;
12088;SDS011;6107;49.078;8.578;2022-11-27T05:57:10;10.10;;;6.40;;
12088;SDS011;6107;49.078;8.578;2022-11-27T05:59:36;10.70;;;6.13;;
12088;SDS011;6107;49.078;8.578;2022-11-27T06:02:01;9.97;;;6.17;;
12088;SDS011;6107;49.078;8.578;2022-11-27T06:04:27;11.50;;;6.73;;
12088;SDS011;6107;49.078;8.578;2022-11-27T06:06:53;11.40;;;6.00;;
12088;SDS011;6107;49.078;8.578;2022-11-27T06:09:18;12.87;;;6.60;;
12088;SDS011;6107;49.078;8.578;2022-11-27T06:11:44;10.83;;;6.73;;
12088;SDS011;6107;49.078;8.578;2022-11-27T06:14:09;10.83;;;6.17;;
12088;SDS011;6107;49.078;8.578;2022-11-27T06:16:35;9.90;;;5.67;;
12088;SDS011;6107;49.078;8.578;2022-11-27T06:19:02;8.00;;;5.37;;
12088;SDS011;6107;49.078;8.578;2022-11-27T06:21:27;11.17;;;4.90;;
12088;SDS011;6107;49.078;8.578;2022-11-27T06:23:53;9.97;;;5.53;;
12088;SDS011;6107;49.078;8.578;2022-11-27T06:26:21;8.80;;;5.40;;
12088;SDS011;6107;49.078;8.578;2022-11-27T06:28:48;8.47;;;5.77;;
12088;SDS011;6107;49.078;8.578;2022-11-27T06:31:16;8.07;;;5.10;;
12088;SDS011;6107;49.078;8.578;2022-11-27T06:33:44;9.37;;;5.90;;
12088;SDS011;6107;49.078;8.578;2022-11-27T06:36:11;6.87;;;4.93;;
12088;SDS011;6107;49.078;8.578;2022-11-27T06:38:36;7.07;;;5.03;;
12088;SDS011;6107;49.078;8.578;2022-11-27T06:41:06;8.63;;;5.30;;
12088;SDS011;6107;49.078;8.578;2022-11-27T06:43:34;7.37;;;4.87;;
12088;SDS011;6107;49.078;8.578;2022-11-27T06:46:00;8.40;;;5.40;;
12088;SDS011;6107;49.078;8.578;2022-11-27T06:48:26;10.73;;;6.00;;
12088;SDS011;6107;49.078;8.578;2022-11-27T06:50:51;8.30;;;5.47;;
12088;SDS011;6107;49.078;8.578;2022-11-27T06:53:17;8.33;;;5.90;;
12088;SDS011;6107;49.078;8.578;2022-11-27T06:55:43;8.37;;;6.00;;
12088;SDS011;6107;49.078;8.578;2022-11-27T06:58:09;7.50;;;5.20;;
12088;SDS011;6107;49.078;8.578;2022-11-27T07:00:35;10.47;;;5.47;;
12088;SDS011;6107;49.078;8.578;2022-11-27T07:03:01;9.37;;;5.70;;
12088;SDS011;6107;49.078;8.578;2022-11-27T07:05:26;7.70;;;5.23;;
12088;SDS011;6107;49.078;8.578;2022-11-27T07:07:55;6.17;;;4.67;;
12088;SDS011;6107;49.078;8.578;2022-11-27T07:10:22;8.63;;;5.13;;
12088;SDS011;6107;49.078;8.578;2022-11-27T07:12:47;7.13;;;4.90;;
12088;SDS011;6107;49.078;8.578;2022-11-27T07:15:13;11.20;;;6.47;;
12088;SDS011;6107;49.078;8.578;2022-11-27T07:17:38;13.53;;;9.03;;
12088;SDS011;6107;49.078;8.578;2022-11-27T07:20:05;9.77;;;6.43;;
12088;SDS011;6107;49.078;8.578;2022-11-27T07:22:34;7.53;;;5.90;;
12088;SDS011;6107;49.078;8.578;2022-11-27T07:25:00;8.67;;;5.83;;
12088;SDS011;6107;49.078;8.578;2022-11-27T07:27:25;16.97;;;9.37;;
12088;SDS011;6107;49.078;8.578;2022-11-27T07:29:51;19.33;;;10.30;;
12088;SDS011;6107;49.078;8.578;2022-11-27T07:32:16;12.83;;;7.50;;
12088;SDS011;6107;49.078;8.578;2022-11-27T07:34:42;7.90;;;5.33;;
12088;SDS011;6107;49.078;8.578;2022-11-27T07:37:07;8.87;;;5.10;;
12088;SDS011;6107;49.078;8.578;2022-11-27T07:39:33;7.43;;;5.57;;
12088;SDS011;6107;49.078;8.578;2022-11-27T07:41:58;7.13;;;5.30;;
12088;SDS011;6107;49.078;8.578;2022-11-27T07:44:24;12.67;;;7.33;;
12088;SDS011;6107;49.078;8.578;2022-11-27T07:46:49;16.77;;;12.53;;
12088;SDS011;6107;49.078;8.578;2022-11-27T07:49:15;13.00;;;8.53;;
12088;SDS011;6107;49.078;8.578;2022-11-27T07:51:41;9.23;;;6.37;;
12088;SDS011;6107;49.078;8.578;2022-11-27T07:54:06;7.87;;;5.17;;
12088;SDS011;6107;49.078;8.578;2022-11-27T07:56:32;10.03;;;5.63;;
12088;SDS011;6107;49.078;8.578;2022-11-27T07:58:57;10.30;;;6.33;;
12088;SDS011;6107;49.078;8.578;2022-11-27T08:01:23;11.83;;;7.03;;
12088;SDS011;6107;49.078;8.578;2022-11-27T08:03:49;8.63;;;5.97;;
12088;SDS011;6107;49.078;8.578;2022-11-27T08:06:18;10.17;;;6.53;;
12088;SDS011;6107;49.078;8.578;2022-11-27T08:08:46;10.73;;;6.87;;
12088;SDS011;6107;49.078;8.578;2022-11-27T08:11:19;10.87;;;6.83;;
12088;SDS011;6107;49.078;8.578;2022-11-27T08:13:47;11.37;;;7.90;;
12088;SDS011;6107;49.078;8.578;2022-11-27T08:16:14;14.53;;;9.97;;
12088;SDS011;6107;49.078;8.578;2022-11-27T08:18:40;14.97;;;9.13;;
12088;SDS011;6107;49.078;8.578;2022-11-27T08:21:05;19.20;;;12.40;;
12088;SDS011;6107;49.078;8.578;2022-11-27T08:23:31;17.37;;;11.40;;
12088;SDS011;6107;49.078;8.578;2022-11-27T08:25:57;17.10;;;10.70;;
12088;SDS011;6107;49.078;8.578;2022-11-27T08:28:22;22.57;;;13.10;;
12088;SDS011;6107;49.078;8.578;2022-11-27T08:30:55;20.60;;;12.53;;
12088;SDS011;6107;49.078;8.578;2022-11-27T08:33:24;16.67;;;10.03;;
12088;SDS011;6107;49.078;8.578;2022-11-27T08:35:53;14.87;;;9.93;;
12088;SDS011;6107;49.078;8.578;2022-11-27T08:38:19;14.37;;;8.93;;
12088;SDS011;6107;49.078;8.578;2022-11-27T08:40:44;18.47;;;9.97;;
12088;SDS011;6107;49.078;8.578;2022-11-27T08:43:17;16.33;;;10.17;;
12088;SDS011;6107;49.078;8.578;2022-11-27T08:45:42;19.00;;;9.13;;
12088;SDS011;6107;49.078;8.578;2022-11-27T08:48:08;15.20;;;9.03;;
12088;SDS011;6107;49.078;8.578;2022-11-27T08:50:33;14.10;;;8.10;;
12088;SDS011;6107;49.078;8.578;2022-11-27T08:53:00;10.17;;;7.20;;
12088;SDS011;6107;49.078;8.578;2022-11-27T08:55:26;10.27;;;6.70;;
12088;SDS011;6107;49.078;8.578;2022-11-27T08:57:52;10.23;;;6.50;;
12088;SDS011;6107;49.078;8.578;2022-11-27T09:00:17;12.23;;;7.27;;
12088;SDS011;6107;49.078;8.578;2022-11-27T09:02:43;10.73;;;6.63;;
12088;SDS011;6107;49.078;8.578;2022-11-27T09:05:09;14.40;;;7.80;;
12088;SDS011;6107;49.078;8.578;2022-11-27T09:07:34;11.67;;;7.23;;
12088;SDS011;6107;49.078;8.578;2022-11-27T09:10:00;13.17;;;7.80;;
12088;SDS011;6107;49.078;8.578;2022-11-27T09:12:25;9.90;;;6.27;;
12088;SDS011;6107;49.078;8.578;2022-11-27T09:14:52;9.87;;;6.53;;
12088;SDS011;6107;49.078;8.578;2022-11-27T09:17:18;14.83;;;8.60;;
12088;SDS011;6107;49.078;8.578;2022-11-27T09:19:44;10.20;;;7.50;;
12088;SDS011;6107;49.078;8.578;2022-11-27T09:22:09;11.20;;;6.73;;
12088;SDS011;6107;49.078;8.578;2022-11-27T09:24:35;8.97;;;6.37;;
12088;SDS011;6107;49.078;8.578;2022-11-27T09:27:01;9.67;;;6.57;;
12088;SDS011;6107;49.078;8.578;2022-11-27T09:29:26;10.37;;;6.93;;
12088;SDS011;6107;49.078;8.578;2022-11-27T09:31:52;13.90;;;7.20;;
12088;SDS011;6107;49.078;8.578;2022-11-27T09:34:17;11.63;;;7.60;;
12088;SDS011;6107;49.078;8.578;2022-11-27T09:36:43;9.90;;;6.90;;
12088;SDS011;6107;49.078;8.578;2022-11-27T09:39:09;11.37;;;7.67;;
12088;SDS011;6107;49.078;8.578;2022-11-27T09:46:48;9.00;;;7.03;;
12088;SDS011;6107;49.078;8.578;2022-11-27T09:49:19;10.63;;;7.90;;
12088;SDS011;6107;49.078;8.578;2022-11-27T09:52:12;12.17;;;7.27;;
12088;SDS011;6107;49.078;8.578;2022-11-27T09:55:00;29.40;;;17.83;;
12088;SDS011;6107;49.078;8.578;2022-11-27T09:57:31;11.90;;;8.93;;
12088;SDS011;6107;49.078;8.578;2022-11-27T10:00:02;10.83;;;8.13;;
12088;SDS011;6107;49.078;8.578;2022-11-27T10:02:37;10.33;;;8.00;;
12088;SDS011;6107;49.078;8.578;2022-11-27T10:05:09;13.67;;;9.10;;
12088;SDS011;6107;49.078;8.578;2022-11-27T10:08:07;11.27;;;8.27;;
12088;SDS011;6107;49.078;8.578;2022-11-27T10:10:43;10.07;;;7.40;;
12088;SDS011;6107;49.078;8.578;2022-11-27T10:18:53;12.30;;;8.80;;
12088;SDS011;6107;49.078;8.578;2022-11-27T10:21:26;13.17;;;8.97;;
12088;SDS011;6107;49.078;8.578;2022-11-27T10:27:30;9.90;;;7.77;;
12088;SDS011;6107;49.078;8.578;2022-11-27T10:30:03;13.63;;;8.17;;
12088;SDS011;6107;49.078;8.578;2022-11-27T10:32:37;9.47;;;7.63;;
12088;SDS011;6107;49.078;8.578;2022-11-27T10:35:04;12.70;;;7.50;;
12088;SDS011;6107;49.078;8.578;2022-11-27T10:37:42;11.43;;;7.43;;
12088;SDS011;6107;49.078;8.578;2022-11-27T10:43:21;14.53;;;10.10;;
12088;SDS011;6107;49.078;8.578;2022-11-27T10:45:52;10.93;;;7.73;;
12088;SDS011;6107;49.078;8.578;2022-11-27T10:48:26;11.53;;;8.30;;
12088;SDS011;6107;49.078;8.578;2022-11-27T10:50:53;11.93;;;8.33;;
12088;SDS011;6107;49.078;8.578;2022-11-27T10:53:29;10.97;;;7.93;;
12088;SDS011;6107;49.078;8.578;2022-11-27T10:58:33;13.30;;;8.10;;
12088;SDS011;6107;49.078;8.578;2022-11-27T11:01:05;9.57;;;7.47;;
12088;SDS011;6107;49.078;8.578;2022-11-27T11:03:35;12.00;;;7.50;;
12088;SDS011;6107;49.078;8.578;2022-11-27T11:06:02;10.67;;;7.20;;
12088;SDS011;6107;49.078;8.578;2022-11-27T11:08:30;10.30;;;7.50;;
12088;SDS011;6107;49.078;8.578;2022-11-27T11:10:59;9.33;;;7.27;;
12088;SDS011;6107;49.078;8.578;2022-11-27T11:13:31;9.53;;;6.50;;
12088;SDS011;6107;49.078;8.578;2022-11-27T11:16:13;8.70;;;6.60;;
12088;SDS011;6107;49.078;8.578;2022-11-27T11:18:47;8.63;;;6.40;;
12088;SDS011;6107;49.078;8.578;2022-11-27T11:21:15;7.87;;;6.63;;
12088;SDS011;6107;49.078;8.578;2022-11-27T11:23:42;8.47;;;6.90;;
12088;SDS011;6107;49.078;8.578;2022-11-27T11:28:47;10.23;;;7.30;;
12088;SDS011;6107;49.078;8.578;2022-11-27T11:31:17;9.53;;;6.50;;
12088;SDS011;6107;49.078;8.578;2022-11-27T11:34:01;9.00;;;6.90;;
12088;SDS011;6107;49.078;8.578;2022-11-27T11:39:27;9.67;;;8.37;;
12088;SDS011;6107;49.078;8.578;2022-11-27T11:41:55;10.07;;;6.90;;
12088;SDS011;6107;49.078;8.578;2022-11-27T11:44:22;9.93;;;8.33;;
12088;SDS011;6107;49.078;8.578;2022-11-27T11:46:56;11.33;;;6.67;;
12088;SDS011;6107;49.078;8.578;2022-11-27T11:49:23;7.00;;;5.93;;
12088;SDS011;6107;49.078;8.578;2022-11-27T11:52:00;9.10;;;6.20;;
12088;SDS011;6107;49.078;8.578;2022-11-27T11:54:37;8.30;;;5.33;;
12088;SDS011;6107;49.078;8.578;2022-11-27T11:57:27;7.77;;;5.67;;
12088;SDS011;6107;49.078;8.578;2022-11-27T12:00:20;8.20;;;5.43;;
12088;SDS011;6107;49.078;8.578;2022-11-27T12:05:36;6.67;;;5.23;;
12088;SDS011;6107;49.078;8.578;2022-11-27T12:11:29;7.93;;;5.43;;
12088;SDS011;6107;49.078;8.578;2022-11-27T12:14:03;6.77;;;4.87;;
12088;SDS011;6107;49.078;8.578;2022-11-27T12:16:58;7.07;;;5.30;;
12088;SDS011;6107;49.078;8.578;2022-11-27T12:19:53;8.90;;;5.57;;
12088;SDS011;6107;49.078;8.578;2022-11-27T12:22:40;7.33;;;5.57;;
12088;SDS011;6107;49.078;8.578;2022-11-27T12:25:28;9.63;;;6.20;;
12088;SDS011;6107;49.078;8.578;2022-11-27T12:30:37;8.33;;;5.73;;
12088;SDS011;6107;49.078;8.578;2022-11-27T12:33:48;8.43;;;5.50;;
12088;SDS011;6107;49.078;8.578;2022-11-27T12:36:45;5.57;;;5.03;;
12088;SDS011;6107;49.078;8.578;2022-11-27T12:39:22;7.27;;;5.43;;
12088;SDS011;6107;49.078;8.578;2022-11-27T12:42:00;6.20;;;5.30;;
12088;SDS011;6107;49.078;8.578;2022-11-27T12:44:40;7.40;;;5.33;;
12088;SDS011;6107;49.078;8.578;2022-11-27T12:47:32;7.60;;;5.43;;
12088;SDS011;6107;49.078;8.578;2022-11-27T12:50:09;6.87;;;5.50;;
12088;SDS011;6107;49.078;8.578;2022-11-27T12:52:44;7.43;;;5.67;;
12088;SDS011;6107;49.078;8.578;2022-11-27T12:55:35;6.20;;;5.33;;
12088;SDS011;6107;49.078;8.578;2022-11-27T12:58:15;8.23;;;5.87;;
12088;SDS011;6107;49.078;8.578;2022-11-27T13:00:48;6.90;;;5.50;;
12088;SDS011;6107;49.078;8.578;2022-11-27T13:03:24;6.50;;;5.43;;
12088;SDS011;6107;49.078;8.578;2022-11-27T13:06:19;8.07;;;5.53;;
12088;SDS011;6107;49.078;8.578;2022-11-27T13:08:51;8.10;;;6.17;;
12088;SDS011;6107;49.078;8.578;2022-11-27T13:11:19;9.40;;;6.50;;
12088;SDS011;6107;49.078;8.578;2022-11-27T13:13:54;11.03;;;7.63;;
12088;SDS011;6107;49.078;8.578;2022-11-27T13:16:32;11.07;;;8.07;;
12088;SDS011;6107;49.078;8.578;2022-11-27T13:19:15;16.13;;;9.57;;
12088;SDS011;6107;49.078;8.578;2022-11-27T13:21:47;13.03;;;8.40;;
12088;SDS011;6107;49.078;8.578;2022-11-27T13:24:14;13.77;;;9.27;;
12088;SDS011;6107;49.078;8.578;2022-11-27T13:32:22;16.30;;;10.33;;
12088;SDS011;6107;49.078;8.578;2022-11-27T13:34:54;17.10;;;10.83;;
12088;SDS011;6107;49.078;8.578;2022-11-27T13:37:25;18.70;;;11.50;;
12088;SDS011;6107;49.078;8.578;2022-11-27T13:42:47;18.23;;;10.97;;
12088;SDS011;6107;49.078;8.578;2022-11-27T13:45:20;21.47;;;12.50;;
12088;SDS011;6107;49.078;8.578;2022-11-27T13:47:49;22.57;;;12.77;;
12088;SDS011;6107;49.078;8.578;2022-11-27T13:50:17;17.17;;;11.23;;
12088;SDS011;6107;49.078;8.578;2022-11-27T13:52:51;21.30;;;11.00;;
12088;SDS011;6107;49.078;8.578;2022-11-27T13:55:27;18.80;;;11.80;;
12088;SDS011;6107;49.078;8.578;2022-11-27T13:57:54;19.47;;;12.17;;
12088;SDS011;6107;49.078;8.578;2022-11-27T14:00:35;20.73;;;12.27;;
12088;SDS011;6107;49.078;8.578;2022-11-27T14:03:02;21.70;;;12.40;;
12088;SDS011;6107;49.078;8.578;2022-11-27T14:05:42;37.20;;;20.37;;
12088;SDS011;6107;49.078;8.578;2022-11-27T14:08:15;25.00;;;14.63;;
12088;SDS011;6107;49.078;8.578;2022-11-27T14:10:54;25.37;;;15.13;;
12088;SDS011;6107;49.078;8.578;2022-11-27T14:13:20;22.90;;;14.33;;
12088;SDS011;6107;49.078;8.578;2022-11-27T14:15:56;23.57;;;15.77;;
12088;SDS011;6107;49.078;8.578;2022-11-27T14:18:28;24.43;;;15.00;;
12088;SDS011;6107;49.078;8.578;2022-11-27T14:20:56;27.73;;;16.03;;
12088;SDS011;6107;49.078;8.578;2022-11-27T14:23:32;24.47;;;15.37;;
12088;SDS011;6107;49.078;8.578;2022-11-27T14:26:32;25.63;;;14.17;;
12088;SDS011;6107;49.078;8.578;2022-11-27T14:28:51;26.13;;;14.57;;
12088;SDS011;6107;49.078;8.578;2022-11-27T14:31:29;23.90;;;14.40;;
12088;SDS011;6107;49.078;8.578;2022-11-27T14:33:59;19.43;;;12.10;;
12088;SDS011;6107;49.078;8.578;2022-11-27T14:36:29;18.37;;;11.73;;
12088;SDS011;6107;49.078;8.578;2022-11-27T14:38:58;18.53;;;11.83;;
12088;SDS011;6107;49.078;8.578;2022-11-27T14:41:25;19.70;;;11.43;;
12088;SDS011;6107;49.078;8.578;2022-11-27T14:44:01;19.37;;;12.40;;
12088;SDS011;6107;49.078;8.578;2022-11-27T14:46:29;21.67;;;13.57;;
12088;SDS011;6107;49.078;8.578;2022-11-27T14:48:56;18.93;;;12.17;;
12088;SDS011;6107;49.078;8.578;2022-11-27T14:51:28;20.57;;;11.90;;
12088;SDS011;6107;49.078;8.578;2022-11-27T14:54:08;18.90;;;11.80;;
12088;SDS011;6107;49.078;8.578;2022-11-27T14:56:39;19.90;;;11.77;;
12088;SDS011;6107;49.078;8.578;2022-11-27T14:59:17;18.30;;;11.40;;
12088;SDS011;6107;49.078;8.578;2022-11-27T15:01:44;17.67;;;11.10;;
12088;SDS011;6107;49.078;8.578;2022-11-27T15:04:26;18.80;;;11.30;;
12088;SDS011;6107;49.078;8.578;2022-11-27T15:06:56;23.40;;;13.50;;
12088;SDS011;6107;49.078;8.578;2022-11-27T15:09:27;19.00;;;12.30;;
12088;SDS011;6107;49.078;8.578;2022-11-27T15:11:58;20.70;;;13.87;;
12088;SDS011;6107;49.078;8.578;2022-11-27T15:14:29;21.23;;;13.67;;
12088;SDS011;6107;49.078;8.578;2022-11-27T15:16:55;20.60;;;12.47;;
12088;SDS011;6107;49.078;8.578;2022-11-27T15:19:24;18.50;;;11.33;;
12088;SDS011;6107;49.078;8.578;2022-11-27T15:21:52;19.30;;;12.10;;
12088;SDS011;6107;49.078;8.578;2022-11-27T15:26:54;21.60;;;12.40;;
12088;SDS011;6107;49.078;8.578;2022-11-27T15:29:34;18.33;;;11.60;;
12088;SDS011;6107;49.078;8.578;2022-11-27T15:32:01;18.53;;;11.33;;
12088;SDS011;6107;49.078;8.578;2022-11-27T15:34:39;20.80;;;10.70;;
12088;SDS011;6107;49.078;8.578;2022-11-27T15:37:11;19.47;;;11.27;;
12088;SDS011;6107;49.078;8.578;2022-11-27T15:39:48;19.63;;;11.33;;
12088;SDS011;6107;49.078;8.578;2022-11-27T15:42:19;19.40;;;11.23;;
12088;SDS011;6107;49.078;8.578;2022-11-27T15:44:45;19.53;;;12.20;;
12088;SDS011;6107;49.078;8.578;2022-11-27T15:47:22;21.23;;;12.20;;
12088;SDS011;6107;49.078;8.578;2022-11-27T15:49:51;20.67;;;12.67;;
12088;SDS011;6107;49.078;8.578;2022-11-27T15:52:17;18.40;;;10.17;;
12088;SDS011;6107;49.078;8.578;2022-11-27T15:54:43;19.20;;;12.03;;
12088;SDS011;6107;49.078;8.578;2022-11-27T15:57:09;17.13;;;10.80;;
12088;SDS011;6107;49.078;8.578;2022-11-27T15:59:34;16.33;;;10.60;;
12088;SDS011;6107;49.078;8.578;2022-11-27T16:02:00;17.43;;;10.17;;
12088;SDS011;6107;49.078;8.578;2022-11-27T16:04:26;21.60;;;11.17;;
12088;SDS011;6107;49.078;8.578;2022-11-27T16:06:51;21.80;;;12.10;;